sensor_id;sensor_type;location;lat;lon;timestamp;P1;durP1;ratioP1;P2;durP2;ratioP2
51925;SDS011;37952;51.938;15.480;2023-03-31T00:01:45;0.90;;;0.80;;
51925;SDS011;37952;51.938;15.480;2023-03-31T00:04:47;1.70;;;0.90;;
51925;SDS011;37952;51.938;15.480;2023-03-31T00:08:01;1.90;;;1.00;;
51925;SDS011;37952;51.938;15.480;2023-03-31T00:11:05;2.60;;;1.00;;
51925;SDS011;37952;51.938;15.480;2023-03-31T00:14:09;2.80;;;1.10;;
51925;SDS011;37952;51.938;15.480;2023-03-31T00:17:13;0.90;;;0.80;;
51925;SDS011;37952;51.938;15.480;2023-03-31T00:20:16;1.00;;;0.80;;
51925;SDS011;37952;51.938;15.480;2023-03-31T00:23:19;0.70;;;0.70;;
51925;SDS011;37952;51.938;15.480;2023-03-31T00:26:29;0.90;;;0.80;;
51925;SDS011;37952;51.938;15.480;2023-03-31T00:29:32;1.10;;;0.80;;
51925;SDS011;37952;51.938;15.480;2023-03-31T00:32:37;1.00;;;0.90;;
51925;SDS011;37952;51.938;15.480;2023-03-31T00:35:39;3.20;;;0.90;;
51925;SDS011;37952;51.938;15.480;2023-03-31T00:38:42;1.00;;;0.90;;
51925;SDS011;37952;51.938;15.480;2023-03-31T00:41:47;1.40;;;0.80;;
51925;SDS011;37952;51.938;15.480;2023-03-31T00:48:18;0.90;;;0.70;;
51925;SDS011;37952;51.938;15.480;2023-03-31T00:51:21;1.40;;;1.10;;
51925;SDS011;37952;51.938;15.480;2023-03-31T00:54:40;0.80;;;0.80;;
51925;SDS011;37952;51.938;15.480;2023-03-31T00:57:46;2.10;;;0.60;;
51925;SDS011;37952;51.938;15.480;2023-03-31T01:00:50;2.70;;;1.20;;
51925;SDS011;37952;51.938;15.480;2023-03-31T01:03:54;1.20;;;1.10;;
51925;SDS011;37952;51.938;15.480;2023-03-31T01:07:07;2.20;;;1.20;;
51925;SDS011;37952;51.938;15.480;2023-03-31T01:10:46;1.00;;;1.00;;
51925;SDS011;37952;51.938;15.480;2023-03-31T01:13:52;1.60;;;1.30;;
51925;SDS011;37952;51.938;15.480;2023-03-31T01:16:58;3.40;;;1.30;;
51925;SDS011;37952;51.938;15.480;2023-03-31T01:27:40;3.90;;;0.90;;
51925;SDS011;37952;51.938;15.480;2023-03-31T01:37:25;2.10;;;0.90;;
51925;SDS011;37952;51.938;15.480;2023-03-31T01:40:36;2.20;;;1.50;;
51925;SDS011;37952;51.938;15.480;2023-03-31T01:47:23;6.60;;;1.20;;
51925;SDS011;37952;51.938;15.480;2023-03-31T01:50:35;1.70;;;0.80;;
51925;SDS011;37952;51.938;15.480;2023-03-31T01:57:16;1.20;;;1.10;;
51925;SDS011;37952;51.938;15.480;2023-03-31T02:00:35;1.90;;;0.80;;
51925;SDS011;37952;51.938;15.480;2023-03-31T02:03:45;0.80;;;0.80;;
51925;SDS011;37952;51.938;15.480;2023-03-31T02:06:53;1.30;;;0.90;;
51925;SDS011;37952;51.938;15.480;2023-03-31T02:10:03;1.10;;;1.00;;
51925;SDS011;37952;51.938;15.480;2023-03-31T02:13:09;2.40;;;0.90;;
51925;SDS011;37952;51.938;15.480;2023-03-31T02:16:18;4.30;;;1.10;;
51925;SDS011;37952;51.938;15.480;2023-03-31T02:19:28;4.30;;;0.70;;
51925;SDS011;37952;51.938;15.480;2023-03-31T02:22:36;0.90;;;0.80;;
51925;SDS011;37952;51.938;15.480;2023-03-31T02:25:48;0.70;;;0.70;;
51925;SDS011;37952;51.938;15.480;2023-03-31T02:28:55;1.20;;;0.60;;
51925;SDS011;37952;51.938;15.480;2023-03-31T02:35:31;4.30;;;1.10;;
51925;SDS011;37952;51.938;15.480;2023-03-31T02:38:38;1.00;;;0.60;;
51925;SDS011;37952;51.938;15.480;2023-03-31T02:41:48;4.10;;;0.70;;
51925;SDS011;37952;51.938;15.480;2023-03-31T02:44:51;2.10;;;0.80;;
51925;SDS011;37952;51.938;15.480;2023-03-31T02:47:54;1.00;;;0.70;;
51925;SDS011;37952;51.938;15.480;2023-03-31T03:04:08;0.60;;;0.60;;
51925;SDS011;37952;51.938;15.480;2023-03-31T03:15:44;1.80;;;0.80;;
51925;SDS011;37952;51.938;15.480;2023-03-31T03:18:57;0.80;;;0.50;;
51925;SDS011;37952;51.938;15.480;2023-03-31T03:22:02;1.70;;;0.70;;
51925;SDS011;37952;51.938;15.480;2023-03-31T03:25:05;1.00;;;0.80;;
51925;SDS011;37952;51.938;15.480;2023-03-31T03:28:11;3.10;;;0.90;;
51925;SDS011;37952;51.938;15.480;2023-03-31T03:31:14;3.10;;;1.30;;
51925;SDS011;37952;51.938;15.480;2023-03-31T03:34:17;2.40;;;1.20;;
51925;SDS011;37952;51.938;15.480;2023-03-31T03:37:21;2.80;;;1.10;;
51925;SDS011;37952;51.938;15.480;2023-03-31T03:40:33;1.40;;;1.30;;
51925;SDS011;37952;51.938;15.480;2023-03-31T03:43:36;0.90;;;0.80;;
51925;SDS011;37952;51.938;15.480;2023-03-31T03:46:38;1.00;;;0.80;;
51925;SDS011;37952;51.938;15.480;2023-03-31T03:49:42;2.60;;;1.10;;
51925;SDS011;37952;51.938;15.480;2023-03-31T03:52:44;0.80;;;0.80;;
51925;SDS011;37952;51.938;15.480;2023-03-31T03:55:47;0.50;;;0.50;;
51925;SDS011;37952;51.938;15.480;2023-03-31T03:58:51;4.00;;;0.70;;
51925;SDS011;37952;51.938;15.480;2023-03-31T04:02:11;3.60;;;0.70;;
51925;SDS011;37952;51.938;15.480;2023-03-31T04:05:14;1.10;;;1.00;;
51925;SDS011;37952;51.938;15.480;2023-03-31T04:08:18;3.00;;;1.00;;
51925;SDS011;37952;51.938;15.480;2023-03-31T04:11:21;3.30;;;1.30;;
51925;SDS011;37952;51.938;15.480;2023-03-31T04:14:25;1.80;;;1.00;;
51925;SDS011;37952;51.938;15.480;2023-03-31T04:17:27;1.70;;;1.20;;
51925;SDS011;37952;51.938;15.480;2023-03-31T04:20:38;4.60;;;1.00;;
51925;SDS011;37952;51.938;15.480;2023-03-31T04:27:08;1.60;;;1.00;;
51925;SDS011;37952;51.938;15.480;2023-03-31T04:30:12;3.40;;;1.20;;
51925;SDS011;37952;51.938;15.480;2023-03-31T04:33:24;2.10;;;1.00;;
51925;SDS011;37952;51.938;15.480;2023-03-31T04:36:27;1.00;;;0.70;;
51925;SDS011;37952;51.938;15.480;2023-03-31T04:39:32;2.10;;;0.70;;
51925;SDS011;37952;51.938;15.480;2023-03-31T04:42:35;1.70;;;1.30;;
51925;SDS011;37952;51.938;15.480;2023-03-31T04:45:38;1.00;;;0.80;;
51925;SDS011;37952;51.938;15.480;2023-03-31T04:48:40;3.90;;;1.40;;
51925;SDS011;37952;51.938;15.480;2023-03-31T04:51:43;1.00;;;0.90;;
51925;SDS011;37952;51.938;15.480;2023-03-31T04:58:08;2.00;;;1.20;;
51925;SDS011;37952;51.938;15.480;2023-03-31T05:01:11;1.20;;;1.00;;
51925;SDS011;37952;51.938;15.480;2023-03-31T05:04:20;1.70;;;1.20;;
51925;SDS011;37952;51.938;15.480;2023-03-31T05:07:23;3.50;;;1.10;;
51925;SDS011;37952;51.938;15.480;2023-03-31T05:10:25;1.50;;;1.30;;
51925;SDS011;37952;51.938;15.480;2023-03-31T05:13:28;3.40;;;1.10;;
51925;SDS011;37952;51.938;15.480;2023-03-31T05:16:31;3.30;;;1.20;;
51925;SDS011;37952;51.938;15.480;2023-03-31T05:19:34;2.40;;;1.10;;
51925;SDS011;37952;51.938;15.480;2023-03-31T05:22:37;1.10;;;1.00;;
51925;SDS011;37952;51.938;15.480;2023-03-31T05:25:43;2.20;;;1.90;;
51925;SDS011;37952;51.938;15.480;2023-03-31T05:28:45;1.70;;;0.70;;
51925;SDS011;37952;51.938;15.480;2023-03-31T05:31:48;1.10;;;0.80;;
51925;SDS011;37952;51.938;15.480;2023-03-31T05:34:51;1.30;;;0.90;;
51925;SDS011;37952;51.938;15.480;2023-03-31T05:37:58;1.30;;;0.80;;
51925;SDS011;37952;51.938;15.480;2023-03-31T05:41:01;2.80;;;0.90;;
51925;SDS011;37952;51.938;15.480;2023-03-31T05:44:04;2.10;;;1.10;;
51925;SDS011;37952;51.938;15.480;2023-03-31T05:47:07;3.60;;;1.10;;
51925;SDS011;37952;51.938;15.480;2023-03-31T05:50:09;5.30;;;1.30;;
51925;SDS011;37952;51.938;15.480;2023-03-31T05:53:16;4.80;;;0.70;;
51925;SDS011;37952;51.938;15.480;2023-03-31T05:56:18;2.90;;;0.90;;
51925;SDS011;37952;51.938;15.480;2023-03-31T05:59:21;3.20;;;1.30;;
51925;SDS011;37952;51.938;15.480;2023-03-31T06:02:31;1.80;;;1.30;;
51925;SDS011;37952;51.938;15.480;2023-03-31T06:05:35;5.30;;;1.40;;
51925;SDS011;37952;51.938;15.480;2023-03-31T06:08:38;0.90;;;0.90;;
51925;SDS011;37952;51.938;15.480;2023-03-31T06:11:40;1.60;;;0.80;;
51925;SDS011;37952;51.938;15.480;2023-03-31T06:14:43;1.00;;;0.80;;
51925;SDS011;37952;51.938;15.480;2023-03-31T06:17:46;1.80;;;1.10;;
51925;SDS011;37952;51.938;15.480;2023-03-31T06:20:49;3.70;;;0.90;;
51925;SDS011;37952;51.938;15.480;2023-03-31T06:23:53;1.20;;;0.90;;
51925;SDS011;37952;51.938;15.480;2023-03-31T06:26:57;1.80;;;0.90;;
51925;SDS011;37952;51.938;15.480;2023-03-31T06:30:02;1.10;;;0.60;;
51925;SDS011;37952;51.938;15.480;2023-03-31T06:33:05;4.10;;;0.70;;
51925;SDS011;37952;51.938;15.480;2023-03-31T06:36:08;1.20;;;0.70;;
51925;SDS011;37952;51.938;15.480;2023-03-31T06:42:29;1.50;;;1.20;;
51925;SDS011;37952;51.938;15.480;2023-03-31T06:45:32;5.30;;;1.20;;
51925;SDS011;37952;51.938;15.480;2023-03-31T06:48:35;1.60;;;0.90;;
51925;SDS011;37952;51.938;15.480;2023-03-31T06:51:38;1.10;;;0.90;;
51925;SDS011;37952;51.938;15.480;2023-03-31T06:54:56;3.60;;;1.00;;
51925;SDS011;37952;51.938;15.480;2023-03-31T06:57:59;2.30;;;0.70;;
51925;SDS011;37952;51.938;15.480;2023-03-31T07:01:03;1.60;;;0.90;;
51925;SDS011;37952;51.938;15.480;2023-03-31T07:04:07;2.20;;;1.30;;
51925;SDS011;37952;51.938;15.480;2023-03-31T07:07:09;3.20;;;1.50;;
51925;SDS011;37952;51.938;15.480;2023-03-31T07:10:12;3.60;;;1.10;;
51925;SDS011;37952;51.938;15.480;2023-03-31T07:13:15;1.70;;;0.80;;
51925;SDS011;37952;51.938;15.480;2023-03-31T07:16:19;3.50;;;1.10;;
51925;SDS011;37952;51.938;15.480;2023-03-31T07:19:21;1.50;;;0.90;;
51925;SDS011;37952;51.938;15.480;2023-03-31T07:22:24;2.30;;;1.30;;
51925;SDS011;37952;51.938;15.480;2023-03-31T07:25:27;1.90;;;1.20;;
51925;SDS011;37952;51.938;15.480;2023-03-31T07:28:30;1.80;;;1.00;;
51925;SDS011;37952;51.938;15.480;2023-03-31T07:31:33;3.20;;;1.90;;
51925;SDS011;37952;51.938;15.480;2023-03-31T07:38:43;5.60;;;3.00;;
51925;SDS011;37952;51.938;15.480;2023-03-31T07:41:48;4.80;;;3.20;;
51925;SDS011;37952;51.938;15.480;2023-03-31T07:44:51;4.40;;;2.30;;
51925;SDS011;37952;51.938;15.480;2023-03-31T07:47:53;4.00;;;1.90;;
51925;SDS011;37952;51.938;15.480;2023-03-31T07:50:56;2.90;;;1.80;;
51925;SDS011;37952;51.938;15.480;2023-03-31T07:53:59;3.40;;;1.80;;
51925;SDS011;37952;51.938;15.480;2023-03-31T07:57:02;1.50;;;1.40;;
51925;SDS011;37952;51.938;15.480;2023-03-31T08:00:08;1.50;;;1.40;;
51925;SDS011;37952;51.938;15.480;2023-03-31T08:03:14;2.20;;;1.70;;
51925;SDS011;37952;51.938;15.480;2023-03-31T08:06:17;4.30;;;2.00;;
51925;SDS011;37952;51.938;15.480;2023-03-31T08:09:22;5.20;;;1.50;;
51925;SDS011;37952;51.938;15.480;2023-03-31T08:12:25;4.70;;;1.40;;
51925;SDS011;37952;51.938;15.480;2023-03-31T08:15:28;1.40;;;1.10;;
51925;SDS011;37952;51.938;15.480;2023-03-31T08:18:30;3.00;;;1.40;;
51925;SDS011;37952;51.938;15.480;2023-03-31T08:21:33;4.50;;;1.70;;
51925;SDS011;37952;51.938;15.480;2023-03-31T08:24:51;3.10;;;1.20;;
51925;SDS011;37952;51.938;15.480;2023-03-31T08:27:54;5.30;;;0.90;;
51925;SDS011;37952;51.938;15.480;2023-03-31T08:31:01;1.80;;;1.00;;
51925;SDS011;37952;51.938;15.480;2023-03-31T08:34:11;2.20;;;1.10;;
51925;SDS011;37952;51.938;15.480;2023-03-31T08:37:14;2.80;;;0.90;;
51925;SDS011;37952;51.938;15.480;2023-03-31T08:40:18;2.50;;;1.10;;
51925;SDS011;37952;51.938;15.480;2023-03-31T08:43:26;3.80;;;1.20;;
51925;SDS011;37952;51.938;15.480;2023-03-31T08:46:34;2.20;;;1.10;;
51925;SDS011;37952;51.938;15.480;2023-03-31T08:49:44;2.50;;;0.90;;
51925;SDS011;37952;51.938;15.480;2023-03-31T08:56:47;2.00;;;1.10;;
51925;SDS011;37952;51.938;15.480;2023-03-31T08:59:53;3.40;;;1.00;;
51925;SDS011;37952;51.938;15.480;2023-03-31T09:03:02;1.70;;;1.00;;
51925;SDS011;37952;51.938;15.480;2023-03-31T09:06:13;2.30;;;1.00;;
51925;SDS011;37952;51.938;15.480;2023-03-31T09:09:41;2.40;;;0.70;;
51925;SDS011;37952;51.938;15.480;2023-03-31T09:19:38;6.60;;;0.90;;
51925;SDS011;37952;51.938;15.480;2023-03-31T09:22:49;1.20;;;1.00;;
51925;SDS011;37952;51.938;15.480;2023-03-31T09:25:58;2.30;;;1.20;;
51925;SDS011;37952;51.938;15.480;2023-03-31T09:29:09;1.90;;;0.90;;
51925;SDS011;37952;51.938;15.480;2023-03-31T09:32:20;3.80;;;1.30;;
51925;SDS011;37952;51.938;15.480;2023-03-31T09:35:26;1.90;;;1.40;;
51925;SDS011;37952;51.938;15.480;2023-03-31T09:38:28;3.80;;;1.30;;
51925;SDS011;37952;51.938;15.480;2023-03-31T09:41:32;3.00;;;1.20;;
51925;SDS011;37952;51.938;15.480;2023-03-31T09:44:36;4.00;;;1.10;;
51925;SDS011;37952;51.938;15.480;2023-03-31T09:47:44;2.10;;;1.10;;
51925;SDS011;37952;51.938;15.480;2023-03-31T09:50:52;3.80;;;1.30;;
51925;SDS011;37952;51.938;15.480;2023-03-31T09:54:11;3.00;;;1.30;;
51925;SDS011;37952;51.938;15.480;2023-03-31T09:57:28;1.50;;;1.10;;
51925;SDS011;37952;51.938;15.480;2023-03-31T10:00:35;1.20;;;0.80;;
51925;SDS011;37952;51.938;15.480;2023-03-31T10:03:49;1.90;;;1.30;;
51925;SDS011;37952;51.938;15.480;2023-03-31T10:06:53;1.40;;;0.80;;
51925;SDS011;37952;51.938;15.480;2023-03-31T10:09:57;1.80;;;1.10;;
51925;SDS011;37952;51.938;15.480;2023-03-31T10:13:00;1.80;;;1.40;;
51925;SDS011;37952;51.938;15.480;2023-03-31T10:16:30;1.50;;;1.40;;
51925;SDS011;37952;51.938;15.480;2023-03-31T10:19:35;4.30;;;1.80;;
51925;SDS011;37952;51.938;15.480;2023-03-31T10:26:26;2.00;;;1.50;;
51925;SDS011;37952;51.938;15.480;2023-03-31T10:29:31;1.50;;;1.40;;
51925;SDS011;37952;51.938;15.480;2023-03-31T10:32:40;4.50;;;1.50;;
51925;SDS011;37952;51.938;15.480;2023-03-31T10:35:46;1.80;;;1.50;;
51925;SDS011;37952;51.938;15.480;2023-03-31T10:38:51;2.50;;;1.60;;
51925;SDS011;37952;51.938;15.480;2023-03-31T10:41:55;1.30;;;1.20;;
51925;SDS011;37952;51.938;15.480;2023-03-31T10:48:40;0.90;;;0.60;;
51925;SDS011;37952;51.938;15.480;2023-03-31T10:55:38;2.00;;;1.40;;
51925;SDS011;37952;51.938;15.480;2023-03-31T11:12:26;4.30;;;2.40;;
51925;SDS011;37952;51.938;15.480;2023-03-31T11:15:40;3.90;;;2.40;;
51925;SDS011;37952;51.938;15.480;2023-03-31T11:31:56;3.20;;;2.20;;
51925;SDS011;37952;51.938;15.480;2023-03-31T11:38:29;2.50;;;1.50;;
51925;SDS011;37952;51.938;15.480;2023-03-31T11:41:36;1.90;;;1.60;;
51925;SDS011;37952;51.938;15.480;2023-03-31T11:44:51;3.50;;;2.70;;
51925;SDS011;37952;51.938;15.480;2023-03-31T11:48:01;3.20;;;2.70;;
51925;SDS011;37952;51.938;15.480;2023-03-31T11:51:11;1.90;;;1.70;;
51925;SDS011;37952;51.938;15.480;2023-03-31T11:58:05;5.60;;;2.20;;
51925;SDS011;37952;51.938;15.480;2023-03-31T12:04:57;3.50;;;1.90;;
51925;SDS011;37952;51.938;15.480;2023-03-31T12:08:11;3.10;;;1.80;;
51925;SDS011;37952;51.938;15.480;2023-03-31T12:11:32;1.80;;;1.70;;
51925;SDS011;37952;51.938;15.480;2023-03-31T12:14:49;2.80;;;2.40;;
51925;SDS011;37952;51.938;15.480;2023-03-31T12:18:07;3.00;;;2.50;;
51925;SDS011;37952;51.938;15.480;2023-03-31T12:21:20;2.00;;;1.50;;
51925;SDS011;37952;51.938;15.480;2023-03-31T12:24:25;2.40;;;1.60;;
51925;SDS011;37952;51.938;15.480;2023-03-31T12:27:34;2.40;;;1.90;;
51925;SDS011;37952;51.938;15.480;2023-03-31T12:30:41;2.10;;;1.80;;
51925;SDS011;37952;51.938;15.480;2023-03-31T12:33:49;1.80;;;1.70;;
51925;SDS011;37952;51.938;15.480;2023-03-31T12:37:08;2.40;;;1.90;;
51925;SDS011;37952;51.938;15.480;2023-03-31T12:40:37;4.40;;;1.40;;
51925;SDS011;37952;51.938;15.480;2023-03-31T12:47:08;1.70;;;1.60;;
51925;SDS011;37952;51.938;15.480;2023-03-31T12:50:26;2.20;;;1.40;;
51925;SDS011;37952;51.938;15.480;2023-03-31T12:53:37;1.10;;;1.00;;
51925;SDS011;37952;51.938;15.480;2023-03-31T13:06:54;1.20;;;0.70;;
51925;SDS011;37952;51.938;15.480;2023-03-31T13:14:14;1.50;;;1.00;;
51925;SDS011;37952;51.938;15.480;2023-03-31T13:17:26;0.90;;;0.70;;
51925;SDS011;37952;51.938;15.480;2023-03-31T13:20:37;1.90;;;0.80;;
51925;SDS011;37952;51.938;15.480;2023-03-31T13:27:28;2.60;;;1.50;;
51925;SDS011;37952;51.938;15.480;2023-03-31T13:48:41;1.90;;;0.90;;
51925;SDS011;37952;51.938;15.480;2023-03-31T13:52:08;1.50;;;1.40;;
51925;SDS011;37952;51.938;15.480;2023-03-31T14:02:41;2.80;;;1.20;;
51925;SDS011;37952;51.938;15.480;2023-03-31T14:09:35;1.80;;;1.40;;
51925;SDS011;37952;51.938;15.480;2023-03-31T14:12:39;3.00;;;1.80;;
51925;SDS011;37952;51.938;15.480;2023-03-31T14:15:52;1.80;;;1.70;;
51925;SDS011;37952;51.938;15.480;2023-03-31T14:19:06;3.00;;;1.90;;
51925;SDS011;37952;51.938;15.480;2023-03-31T14:30:38;1.90;;;1.30;;
51925;SDS011;37952;51.938;15.480;2023-03-31T14:39:54;5.80;;;1.80;;
51925;SDS011;37952;51.938;15.480;2023-03-31T14:43:00;4.40;;;1.60;;
51925;SDS011;37952;51.938;15.480;2023-03-31T14:46:05;1.50;;;1.40;;
51925;SDS011;37952;51.938;15.480;2023-03-31T14:52:50;2.10;;;2.00;;
51925;SDS011;37952;51.938;15.480;2023-03-31T14:55:56;4.40;;;1.70;;
51925;SDS011;37952;51.938;15.480;2023-03-31T14:59:04;2.00;;;1.60;;
51925;SDS011;37952;51.938;15.480;2023-03-31T15:02:12;2.40;;;2.20;;
51925;SDS011;37952;51.938;15.480;2023-03-31T15:05:24;1.90;;;1.80;;
51925;SDS011;37952;51.938;15.480;2023-03-31T15:08:31;1.70;;;1.40;;
51925;SDS011;37952;51.938;15.480;2023-03-31T15:15:44;1.90;;;1.80;;
51925;SDS011;37952;51.938;15.480;2023-03-31T15:18:47;2.40;;;2.20;;
51925;SDS011;37952;51.938;15.480;2023-03-31T15:21:54;3.30;;;1.80;;
51925;SDS011;37952;51.938;15.480;2023-03-31T15:24:57;7.80;;;1.70;;
51925;SDS011;37952;51.938;15.480;2023-03-31T15:28:02;2.30;;;2.10;;
51925;SDS011;37952;51.938;15.480;2023-03-31T15:31:08;1.60;;;1.50;;
51925;SDS011;37952;51.938;15.480;2023-03-31T15:34:31;1.80;;;1.50;;
51925;SDS011;37952;51.938;15.480;2023-03-31T15:37:37;4.10;;;1.90;;
51925;SDS011;37952;51.938;15.480;2023-03-31T15:40:42;2.40;;;1.60;;
51925;SDS011;37952;51.938;15.480;2023-03-31T15:43:47;2.30;;;2.10;;
51925;SDS011;37952;51.938;15.480;2023-03-31T15:46:58;1.70;;;1.60;;
51925;SDS011;37952;51.938;15.480;2023-03-31T15:53:20;2.20;;;2.00;;
51925;SDS011;37952;51.938;15.480;2023-03-31T15:59:46;2.90;;;1.70;;
51925;SDS011;37952;51.938;15.480;2023-03-31T16:02:57;2.20;;;1.70;;
51925;SDS011;37952;51.938;15.480;2023-03-31T16:06:09;1.60;;;1.50;;
51925;SDS011;37952;51.938;15.480;2023-03-31T16:13:04;1.70;;;1.60;;
51925;SDS011;37952;51.938;15.480;2023-03-31T16:16:11;1.50;;;1.40;;
51925;SDS011;37952;51.938;15.480;2023-03-31T16:19:16;2.00;;;1.30;;
51925;SDS011;37952;51.938;15.480;2023-03-31T16:26:35;1.10;;;1.00;;
51925;SDS011;37952;51.938;15.480;2023-03-31T16:29:39;1.30;;;0.80;;
51925;SDS011;37952;51.938;15.480;2023-03-31T16:33:04;1.20;;;1.10;;
51925;SDS011;37952;51.938;15.480;2023-03-31T16:39:24;2.80;;;1.00;;
51925;SDS011;37952;51.938;15.480;2023-03-31T16:42:27;2.90;;;1.00;;
51925;SDS011;37952;51.938;15.480;2023-03-31T16:45:30;1.60;;;0.90;;
51925;SDS011;37952;51.938;15.480;2023-03-31T16:48:32;1.30;;;1.20;;
51925;SDS011;37952;51.938;15.480;2023-03-31T16:51:36;2.20;;;1.00;;
51925;SDS011;37952;51.938;15.480;2023-03-31T16:54:39;2.00;;;1.20;;
51925;SDS011;37952;51.938;15.480;2023-03-31T16:57:41;2.40;;;1.50;;
51925;SDS011;37952;51.938;15.480;2023-03-31T17:00:44;1.60;;;1.50;;
51925;SDS011;37952;51.938;15.480;2023-03-31T17:03:47;1.30;;;1.20;;
51925;SDS011;37952;51.938;15.480;2023-03-31T17:06:51;1.50;;;1.40;;
51925;SDS011;37952;51.938;15.480;2023-03-31T17:09:54;3.80;;;1.70;;
51925;SDS011;37952;51.938;15.480;2023-03-31T17:12:57;1.70;;;1.60;;
51925;SDS011;37952;51.938;15.480;2023-03-31T17:16:00;1.90;;;1.30;;
51925;SDS011;37952;51.938;15.480;2023-03-31T17:19:20;1.70;;;1.40;;
51925;SDS011;37952;51.938;15.480;2023-03-31T17:22:24;1.60;;;1.50;;
51925;SDS011;37952;51.938;15.480;2023-03-31T17:25:27;1.50;;;1.40;;
51925;SDS011;37952;51.938;15.480;2023-03-31T17:28:30;1.70;;;1.60;;
51925;SDS011;37952;51.938;15.480;2023-03-31T17:31:32;1.60;;;1.50;;
51925;SDS011;37952;51.938;15.480;2023-03-31T17:34:35;1.50;;;1.40;;
51925;SDS011;37952;51.938;15.480;2023-03-31T17:37:39;2.20;;;1.50;;
51925;SDS011;37952;51.938;15.480;2023-03-31T17:40:42;1.80;;;1.70;;
51925;SDS011;37952;51.938;15.480;2023-03-31T17:43:46;1.40;;;1.30;;
51925;SDS011;37952;51.938;15.480;2023-03-31T17:46:50;1.90;;;1.60;;
51925;SDS011;37952;51.938;15.480;2023-03-31T17:49:53;2.10;;;2.00;;
51925;SDS011;37952;51.938;15.480;2023-03-31T17:52:56;1.90;;;1.80;;
51925;SDS011;37952;51.938;15.480;2023-03-31T17:56:01;2.60;;;2.40;;
51925;SDS011;37952;51.938;15.480;2023-03-31T17:59:05;3.70;;;2.10;;
51925;SDS011;37952;51.938;15.480;2023-03-31T18:02:10;1.60;;;1.50;;
51925;SDS011;37952;51.938;15.480;2023-03-31T18:05:14;2.60;;;2.10;;
51925;SDS011;37952;51.938;15.480;2023-03-31T18:08:20;2.10;;;2.00;;
51925;SDS011;37952;51.938;15.480;2023-03-31T18:11:23;1.70;;;1.60;;
51925;SDS011;37952;51.938;15.480;2023-03-31T18:14:26;1.60;;;1.50;;
51925;SDS011;37952;51.938;15.480;2023-03-31T18:17:29;1.60;;;1.50;;
51925;SDS011;37952;51.938;15.480;2023-03-31T18:20:33;2.00;;;1.90;;
51925;SDS011;37952;51.938;15.480;2023-03-31T18:23:36;1.60;;;1.50;;
51925;SDS011;37952;51.938;15.480;2023-03-31T18:26:39;1.40;;;1.30;;
51925;SDS011;37952;51.938;15.480;2023-03-31T18:29:43;1.70;;;1.60;;
51925;SDS011;37952;51.938;15.480;2023-03-31T18:32:45;1.80;;;1.70;;
51925;SDS011;37952;51.938;15.480;2023-03-31T18:35:49;3.20;;;2.00;;
51925;SDS011;37952;51.938;15.480;2023-03-31T18:38:52;1.40;;;1.30;;
51925;SDS011;37952;51.938;15.480;2023-03-31T18:41:55;1.90;;;1.80;;
51925;SDS011;37952;51.938;15.480;2023-03-31T18:44:59;2.90;;;2.70;;
51925;SDS011;37952;51.938;15.480;2023-03-31T18:48:02;2.30;;;2.10;;
51925;SDS011;37952;51.938;15.480;2023-03-31T18:51:05;2.90;;;2.70;;
51925;SDS011;37952;51.938;15.480;2023-03-31T18:57:30;3.00;;;2.80;;
51925;SDS011;37952;51.938;15.480;2023-03-31T19:00:39;2.70;;;2.50;;
51925;SDS011;37952;51.938;15.480;2023-03-31T19:03:43;2.90;;;2.70;;
51925;SDS011;37952;51.938;15.480;2023-03-31T19:06:50;2.90;;;2.70;;
51925;SDS011;37952;51.938;15.480;2023-03-31T19:09:55;3.20;;;3.00;;
51925;SDS011;37952;51.938;15.480;2023-03-31T19:12:57;2.90;;;2.70;;
51925;SDS011;37952;51.938;15.480;2023-03-31T19:16:00;2.90;;;2.70;;
51925;SDS011;37952;51.938;15.480;2023-03-31T19:19:04;3.30;;;3.10;;
51925;SDS011;37952;51.938;15.480;2023-03-31T19:25:22;2.90;;;2.60;;
51925;SDS011;37952;51.938;15.480;2023-03-31T19:28:25;2.80;;;2.60;;
51925;SDS011;37952;51.938;15.480;2023-03-31T19:31:29;2.60;;;2.50;;
51925;SDS011;37952;51.938;15.480;2023-03-31T19:34:34;3.00;;;2.80;;
51925;SDS011;37952;51.938;15.480;2023-03-31T19:37:38;3.10;;;2.90;;
51925;SDS011;37952;51.938;15.480;2023-03-31T19:40:41;3.80;;;2.30;;
51925;SDS011;37952;51.938;15.480;2023-03-31T19:43:44;2.40;;;2.00;;
51925;SDS011;37952;51.938;15.480;2023-03-31T19:46:49;2.70;;;2.50;;
51925;SDS011;37952;51.938;15.480;2023-03-31T19:50:05;2.60;;;2.40;;
51925;SDS011;37952;51.938;15.480;2023-03-31T19:53:08;2.50;;;2.30;;
51925;SDS011;37952;51.938;15.480;2023-03-31T19:56:12;2.30;;;2.10;;
51925;SDS011;37952;51.938;15.480;2023-03-31T19:59:17;2.90;;;2.80;;
51925;SDS011;37952;51.938;15.480;2023-03-31T20:02:20;3.00;;;2.80;;
51925;SDS011;37952;51.938;15.480;2023-03-31T20:05:24;2.10;;;1.90;;
51925;SDS011;37952;51.938;15.480;2023-03-31T20:08:28;2.40;;;2.20;;
51925;SDS011;37952;51.938;15.480;2023-03-31T20:11:31;3.20;;;2.90;;
51925;SDS011;37952;51.938;15.480;2023-03-31T20:14:34;2.60;;;2.50;;
51925;SDS011;37952;51.938;15.480;2023-03-31T20:17:37;2.40;;;2.30;;
51925;SDS011;37952;51.938;15.480;2023-03-31T20:20:40;3.30;;;3.00;;
51925;SDS011;37952;51.938;15.480;2023-03-31T20:23:44;3.50;;;3.10;;
51925;SDS011;37952;51.938;15.480;2023-03-31T20:26:48;2.40;;;2.20;;
51925;SDS011;37952;51.938;15.480;2023-03-31T20:29:51;2.80;;;2.60;;
51925;SDS011;37952;51.938;15.480;2023-03-31T20:32:54;2.60;;;2.40;;
51925;SDS011;37952;51.938;15.480;2023-03-31T20:36:05;2.50;;;2.30;;
51925;SDS011;37952;51.938;15.480;2023-03-31T20:39:10;2.40;;;2.30;;
51925;SDS011;37952;51.938;15.480;2023-03-31T20:42:15;2.10;;;2.00;;
51925;SDS011;37952;51.938;15.480;2023-03-31T20:45:18;2.50;;;2.40;;
51925;SDS011;37952;51.938;15.480;2023-03-31T20:48:20;2.40;;;2.30;;
51925;SDS011;37952;51.938;15.480;2023-03-31T20:51:24;1.80;;;1.70;;
51925;SDS011;37952;51.938;15.480;2023-03-31T20:54:33;1.50;;;1.40;;
51925;SDS011;37952;51.938;15.480;2023-03-31T20:57:37;1.80;;;1.60;;
51925;SDS011;37952;51.938;15.480;2023-03-31T21:00:39;2.50;;;1.90;;
51925;SDS011;37952;51.938;15.480;2023-03-31T21:03:43;2.30;;;1.80;;
51925;SDS011;37952;51.938;15.480;2023-03-31T21:06:46;1.50;;;1.40;;
51925;SDS011;37952;51.938;15.480;2023-03-31T21:09:50;1.40;;;1.30;;
51925;SDS011;37952;51.938;15.480;2023-03-31T21:12:53;2.30;;;2.10;;
51925;SDS011;37952;51.938;15.480;2023-03-31T21:15:56;2.10;;;2.00;;
51925;SDS011;37952;51.938;15.480;2023-03-31T21:19:01;2.80;;;2.60;;
51925;SDS011;37952;51.938;15.480;2023-03-31T21:22:04;2.40;;;2.30;;
51925;SDS011;37952;51.938;15.480;2023-03-31T21:28:41;2.60;;;2.40;;
51925;SDS011;37952;51.938;15.480;2023-03-31T21:31:44;4.60;;;2.70;;
51925;SDS011;37952;51.938;15.480;2023-03-31T21:34:48;2.40;;;2.20;;
51925;SDS011;37952;51.938;15.480;2023-03-31T21:37:51;2.40;;;2.20;;
51925;SDS011;37952;51.938;15.480;2023-03-31T21:44:31;1.90;;;1.80;;
51925;SDS011;37952;51.938;15.480;2023-03-31T21:47:34;3.00;;;2.40;;
51925;SDS011;37952;51.938;15.480;2023-03-31T21:50:38;2.70;;;2.50;;
51925;SDS011;37952;51.938;15.480;2023-03-31T21:53:42;2.60;;;2.40;;
51925;SDS011;37952;51.938;15.480;2023-03-31T21:56:45;2.20;;;2.10;;
51925;SDS011;37952;51.938;15.480;2023-03-31T21:59:47;2.60;;;2.40;;
51925;SDS011;37952;51.938;15.480;2023-03-31T22:02:50;2.50;;;2.40;;
51925;SDS011;37952;51.938;15.480;2023-03-31T22:06:12;2.10;;;2.00;;
51925;SDS011;37952;51.938;15.480;2023-03-31T22:09:15;2.20;;;2.00;;
51925;SDS011;37952;51.938;15.480;2023-03-31T22:12:18;2.00;;;1.80;;